TimePDT,TemperatureF,Dew PointF,Humidity,Sea Level PressureIn,VisibilityMPH,Wind Direction,Wind SpeedMPH,Gust SpeedMPH,PrecipitationIn,Events,Conditions,WindDirDegrees,DateUTC
12:53 AM,63.0,54.0,72,30.12,10.0,Calm,Calm,-,N/A,,Overcast,0,2013-08-02 07:53:00
1:53 AM,62.1,54.0,75,30.12,10.0,SW,3.5,-,N/A,,Overcast,230,2013-08-02 08:53:00
2:53 AM,61.0,54.0,78,30.11,10.0,South,3.5,-,N/A,,Overcast,170,2013-08-02 09:53:00
3:53 AM,61.0,54.0,78,30.11,10.0,SSW,5.8,-,N/A,,Overcast,200,2013-08-02 10:53:00
4:53 AM,60.1,53.1,78,30.11,10.0,SSW,6.9,-,N/A,,Mostly Cloudy,200,2013-08-02 11:53:00
5:53 AM,59.0,54.0,83,30.12,10.0,South,5.8,-,N/A,,Overcast,170,2013-08-02 12:53:00
6:53 AM,60.1,54.0,80,30.13,10.0,South,5.8,-,N/A,,Overcast,180,2013-08-02 13:53:00
7:53 AM,61.0,54.0,78,30.14,10.0,SW,4.6,-,N/A,,Overcast,230,2013-08-02 14:53:00
8:53 AM,62.1,54.0,75,30.15,10.0,SSW,4.6,-,N/A,,Overcast,200,2013-08-02 15:53:00
9:53 AM,64.0,53.1,67,30.15,10.0,WNW,3.5,-,N/A,,Overcast,290,2013-08-02 16:53:00
10:53 AM,64.0,53.1,67,30.14,10.0,Calm,Calm,-,N/A,,Overcast,0,2013-08-02 17:53:00
11:53 AM,64.9,53.1,65,30.14,10.0,Calm,Calm,-,N/A,,Overcast,0,2013-08-02 18:53:00
12:53 PM,68.0,52.0,56,30.13,9.0,Calm,Calm,-,N/A,,Overcast,0,2013-08-02 19:53:00
1:53 PM,70.0,50.0,49,30.13,10.0,NNW,3.5,-,N/A,,Overcast,330,2013-08-02 20:53:00
2:53 PM,70.0,51.1,51,30.12,10.0,Variable,3.5,-,N/A,,Overcast,0,2013-08-02 21:53:00
3:53 PM,71.1,51.1,49,30.12,10.0,Calm,Calm,-,N/A,,Overcast,0,2013-08-02 22:53:00
4:53 PM,71.1,52.0,51,30.11,10.0,North,4.6,-,N/A,,Overcast,350,2013-08-02 23:53:00
5:53 PM,71.1,53.1,53,30.10,10.0,NW,6.9,-,N/A,,Overcast,320,2013-08-03 00:53:00
6:53 PM,70.0,54.0,57,30.10,10.0,North,4.6,-,N/A,,Overcast,360,2013-08-03 01:53:00
7:53 PM,69.1,54.0,58,30.10,10.0,North,3.5,-,N/A,,Overcast,350,2013-08-03 02:53:00
8:53 PM,66.9,55.0,66,30.10,10.0,NNW,3.5,-,N/A,,Overcast,340,2013-08-03 03:53:00
9:53 PM,66.0,57.0,73,30.11,10.0,NNW,4.6,-,N/A,,Mostly Cloudy,340,2013-08-03 04:53:00
10:53 PM,64.0,55.9,75,30.12,10.0,NNW,6.9,-,N/A,,Mostly Cloudy,340,2013-08-03 05:53:00
11:53 PM,63.0,55.0,75,30.11,10.0,NW,6.9,-,N/A,,Mostly Cloudy,310,2013-08-03 06:53:00